sensor_id;sensor_type;location;lat;lon;timestamp;pressure;altitude;pressure_sealevel;temperature;humidity
8890;BME280;4481;43.406;24.454;2022-12-16T00:00:03;78244.53;;;-144.09;100.00
8890;BME280;4481;43.406;24.454;2022-12-16T00:02:29;78217.34;;;-144.09;100.00
8890;BME280;4481;43.406;24.454;2022-12-16T00:04:55;78225.72;;;-144.09;100.00
8890;BME280;4481;43.406;24.454;2022-12-16T00:07:22;78219.44;;;-144.09;100.00
8890;BME280;4481;43.406;24.454;2022-12-16T00:09:48;78209.00;;;-144.09;100.00
8890;BME280;4481;43.406;24.454;2022-12-16T00:12:14;78190.19;;;-144.09;100.00
8890;BME280;4481;43.406;24.454;2022-12-16T00:14:40;78188.09;;;-144.09;100.00
8890;BME280;4481;43.406;24.454;2022-12-16T00:17:07;78186.00;;;-144.09;100.00
8890;BME280;4481;43.406;24.454;2022-12-16T00:19:34;78186.00;;;-144.09;100.00
8890;BME280;4481;43.406;24.454;2022-12-16T00:22:00;78188.09;;;-144.09;100.00
8890;BME280;4481;43.406;24.454;2022-12-16T00:24:26;78196.44;;;-144.09;100.00
8890;BME280;4481;43.406;24.454;2022-12-16T00:26:52;78206.91;;;-144.09;100.00
8890;BME280;4481;43.406;24.454;2022-12-16T00:29:18;78206.91;;;-144.09;100.00
8890;BME280;4481;43.406;24.454;2022-12-16T00:31:45;78227.81;;;-144.09;100.00
8890;BME280;4481;43.406;24.454;2022-12-16T00:34:13;78209.00;;;-144.09;100.00
8890;BME280;4481;43.406;24.454;2022-12-16T00:36:39;78211.09;;;-144.09;100.00
8890;BME280;4481;43.406;24.454;2022-12-16T00:39:05;78232.00;;;-144.09;100.00
8890;BME280;4481;43.406;24.454;2022-12-16T00:41:31;78219.44;;;-144.09;100.00
8890;BME280;4481;43.406;24.454;2022-12-16T00:43:58;78204.81;;;-144.09;100.00
8890;BME280;4481;43.406;24.454;2022-12-16T00:46:24;78198.53;;;-144.09;100.00
8890;BME280;4481;43.406;24.454;2022-12-16T00:48:50;78175.53;;;-144.09;100.00
8890;BME280;4481;43.406;24.454;2022-12-16T00:51:17;78160.91;;;-144.09;100.00
8890;BME280;4481;43.406;24.454;2022-12-16T00:53:43;78167.19;;;-144.09;100.00
8890;BME280;4481;43.406;24.454;2022-12-16T00:56:11;78144.19;;;-144.09;100.00
8890;BME280;4481;43.406;24.454;2022-12-16T00:58:39;78142.09;;;-144.09;100.00
8890;BME280;4481;43.406;24.454;2022-12-16T01:01:06;78127.47;;;-144.09;100.00
8890;BME280;4481;43.406;24.454;2022-12-16T01:03:33;78123.28;;;-144.09;100.00
8890;BME280;4481;43.406;24.454;2022-12-16T01:05:59;78125.38;;;-144.09;100.00
8890;BME280;4481;43.406;24.454;2022-12-16T01:08:26;78119.09;;;-144.09;100.00
8890;BME280;4481;43.406;24.454;2022-12-16T01:10:54;78121.19;;;-144.09;100.00
8890;BME280;4481;43.406;24.454;2022-12-16T01:13:22;78114.91;;;-144.09;100.00
8890;BME280;4481;43.406;24.454;2022-12-16T01:15:49;78108.66;;;-144.09;100.00
8890;BME280;4481;43.406;24.454;2022-12-16T01:18:17;78127.47;;;-144.09;100.00
8890;BME280;4481;43.406;24.454;2022-12-16T01:20:43;78137.91;;;-144.09;100.00
8890;BME280;4481;43.406;24.454;2022-12-16T01:23:10;78131.66;;;-144.09;100.00
8890;BME280;4481;43.406;24.454;2022-12-16T01:25:36;78123.28;;;-144.09;100.00
8890;BME280;4481;43.406;24.454;2022-12-16T01:28:03;78110.75;;;-144.09;100.00
8890;BME280;4481;43.406;24.454;2022-12-16T01:30:30;78119.09;;;-144.09;100.00
8890;BME280;4481;43.406;24.454;2022-12-16T01:32:56;78133.72;;;-144.09;100.00
8890;BME280;4481;43.406;24.454;2022-12-16T01:35:22;78123.28;;;-144.09;100.00
8890;BME280;4481;43.406;24.454;2022-12-16T01:37:48;78114.91;;;-144.09;100.00
8890;BME280;4481;43.406;24.454;2022-12-16T01:40:17;78110.75;;;-144.09;100.00
8890;BME280;4481;43.406;24.454;2022-12-16T01:42:44;78110.75;;;-144.09;100.00
8890;BME280;4481;43.406;24.454;2022-12-16T01:45:30;78091.94;;;-144.09;100.00
8890;BME280;4481;43.406;24.454;2022-12-16T01:47:59;78081.47;;;-144.09;100.00
8890;BME280;4481;43.406;24.454;2022-12-16T01:50:28;78079.38;;;-144.09;100.00
8890;BME280;4481;43.406;24.454;2022-12-16T01:52:56;78085.66;;;-144.09;100.00
8890;BME280;4481;43.406;24.454;2022-12-16T01:55:27;78127.47;;;-144.09;100.00
8890;BME280;4481;43.406;24.454;2022-12-16T01:58:00;78112.84;;;-144.09;100.00
8890;BME280;4481;43.406;24.454;2022-12-16T02:00:27;78119.09;;;-144.09;100.00
8890;BME280;4481;43.406;24.454;2022-12-16T02:02:55;78098.19;;;-144.09;100.00
8890;BME280;4481;43.406;24.454;2022-12-16T02:05:22;78089.84;;;-144.09;100.00
8890;BME280;4481;43.406;24.454;2022-12-16T02:07:55;78081.47;;;-144.09;100.00
8890;BME280;4481;43.406;24.454;2022-12-16T02:10:30;78071.03;;;-144.09;100.00
8890;BME280;4481;43.406;24.454;2022-12-16T02:13:03;78071.03;;;-144.09;100.00
8890;BME280;4481;43.406;24.454;2022-12-16T02:15:39;78058.47;;;-144.09;100.00
8890;BME280;4481;43.406;24.454;2022-12-16T02:18:15;78079.38;;;-144.09;100.00
8890;BME280;4481;43.406;24.454;2022-12-16T02:21:14;78041.75;;;-144.09;100.00
8890;BME280;4481;43.406;24.454;2022-12-16T02:24:25;78060.56;;;-144.09;100.00
8890;BME280;4481;43.406;24.454;2022-12-16T02:33:39;78052.22;;;-144.09;100.00
8890;BME280;4481;43.406;24.454;2022-12-16T02:36:12;78039.66;;;-144.09;100.00
8890;BME280;4481;43.406;24.454;2022-12-16T02:38:47;78012.50;;;-144.09;100.00
8890;BME280;4481;43.406;24.454;2022-12-16T02:41:20;78029.22;;;-144.09;100.00
8890;BME280;4481;43.406;24.454;2022-12-16T02:43:52;78043.84;;;-144.09;100.00
8890;BME280;4481;43.406;24.454;2022-12-16T02:46:22;78054.28;;;-144.09;100.00
8890;BME280;4481;43.406;24.454;2022-12-16T02:48:50;78060.56;;;-144.09;100.00
8890;BME280;4481;43.406;24.454;2022-12-16T02:51:16;78022.94;;;-144.09;100.00
8890;BME280;4481;43.406;24.454;2022-12-16T02:53:45;78031.31;;;-144.09;100.00
8890;BME280;4481;43.406;24.454;2022-12-16T02:56:22;78020.84;;;-144.09;100.00
8890;BME280;4481;43.406;24.454;2022-12-16T02:58:59;78020.84;;;-144.09;100.00
8890;BME280;4481;43.406;24.454;2022-12-16T03:01:33;78010.41;;;-144.09;100.00
8890;BME280;4481;43.406;24.454;2022-12-16T03:04:05;78048.03;;;-144.09;100.00
8890;BME280;4481;43.406;24.454;2022-12-16T03:06:33;78056.38;;;-144.09;100.00
8890;BME280;4481;43.406;24.454;2022-12-16T03:09:06;78058.47;;;-144.09;100.00
8890;BME280;4481;43.406;24.454;2022-12-16T03:11:34;78039.66;;;-144.09;100.00
8890;BME280;4481;43.406;24.454;2022-12-16T03:14:04;78002.03;;;-144.09;100.00
8890;BME280;4481;43.406;24.454;2022-12-16T03:16:33;78006.22;;;-144.09;100.00
8890;BME280;4481;43.406;24.454;2022-12-16T03:19:01;77991.59;;;-144.09;100.00
8890;BME280;4481;43.406;24.454;2022-12-16T03:21:33;78008.31;;;-144.09;100.00
8890;BME280;4481;43.406;24.454;2022-12-16T03:24:00;78010.41;;;-144.09;100.00
8890;BME280;4481;43.406;24.454;2022-12-16T03:26:31;78008.31;;;-144.09;100.00
8890;BME280;4481;43.406;24.454;2022-12-16T03:29:02;78002.03;;;-144.09;100.00
8890;BME280;4481;43.406;24.454;2022-12-16T03:31:36;78010.41;;;-144.09;100.00
8890;BME280;4481;43.406;24.454;2022-12-16T03:34:08;78008.31;;;-144.09;100.00
8890;BME280;4481;43.406;24.454;2022-12-16T03:36:38;78014.56;;;-144.09;100.00
8890;BME280;4481;43.406;24.454;2022-12-16T03:39:07;78031.31;;;-144.09;100.00
8890;BME280;4481;43.406;24.454;2022-12-16T03:41:34;78037.56;;;-144.09;100.00
8890;BME280;4481;43.406;24.454;2022-12-16T03:44:01;78002.03;;;-144.09;100.00
8890;BME280;4481;43.406;24.454;2022-12-16T03:46:28;78020.84;;;-144.09;100.00
8890;BME280;4481;43.406;24.454;2022-12-16T03:48:54;78031.31;;;-144.09;100.00
8890;BME280;4481;43.406;24.454;2022-12-16T03:51:20;78016.66;;;-144.09;100.00
8890;BME280;4481;43.406;24.454;2022-12-16T03:53:47;78052.22;;;-144.09;100.00
8890;BME280;4481;43.406;24.454;2022-12-16T03:56:13;78077.28;;;-144.09;100.00
8890;BME280;4481;43.406;24.454;2022-12-16T03:58:39;78054.28;;;-144.09;100.00
8890;BME280;4481;43.406;24.454;2022-12-16T04:01:06;78027.13;;;-144.09;100.00
8890;BME280;4481;43.406;24.454;2022-12-16T04:03:33;78056.38;;;-144.09;100.00
8890;BME280;4481;43.406;24.454;2022-12-16T04:06:00;78033.38;;;-144.09;100.00
8890;BME280;4481;43.406;24.454;2022-12-16T04:08:26;78002.03;;;-144.09;100.00
8890;BME280;4481;43.406;24.454;2022-12-16T04:10:53;77995.75;;;-144.09;100.00
8890;BME280;4481;43.406;24.454;2022-12-16T04:13:38;78008.31;;;-144.09;100.00
8890;BME280;4481;43.406;24.454;2022-12-16T04:16:22;78031.31;;;-144.09;100.00
8890;BME280;4481;43.406;24.454;2022-12-16T04:19:17;78056.38;;;-144.09;100.00
8890;BME280;4481;43.406;24.454;2022-12-16T04:22:20;78043.84;;;-144.09;100.00
8890;BME280;4481;43.406;24.454;2022-12-16T04:25:08;78012.50;;;-144.09;100.00
8890;BME280;4481;43.406;24.454;2022-12-16T04:27:36;77993.69;;;-144.09;100.00
8890;BME280;4481;43.406;24.454;2022-12-16T04:30:03;77985.31;;;-144.09;100.00
8890;BME280;4481;43.406;24.454;2022-12-16T04:32:44;78010.41;;;-144.09;100.00
8890;BME280;4481;43.406;24.454;2022-12-16T04:35:28;78022.94;;;-144.09;100.00
8890;BME280;4481;43.406;24.454;2022-12-16T04:38:13;78010.41;;;-144.09;100.00
8890;BME280;4481;43.406;24.454;2022-12-16T04:40:57;78043.84;;;-144.09;100.00
8890;BME280;4481;43.406;24.454;2022-12-16T04:43:42;78039.66;;;-144.09;100.00
8890;BME280;4481;43.406;24.454;2022-12-16T04:46:26;78031.31;;;-144.09;100.00
8890;BME280;4481;43.406;24.454;2022-12-16T04:49:13;78029.22;;;-144.09;100.00
8890;BME280;4481;43.406;24.454;2022-12-16T04:51:57;78022.94;;;-144.09;100.00
8890;BME280;4481;43.406;24.454;2022-12-16T04:54:41;78031.31;;;-144.09;100.00
8890;BME280;4481;43.406;24.454;2022-12-16T04:57:25;78025.03;;;-144.09;100.00
8890;BME280;4481;43.406;24.454;2022-12-16T05:00:11;78004.13;;;-144.09;100.00
8890;BME280;4481;43.406;24.454;2022-12-16T05:02:56;78004.13;;;-144.09;100.00
8890;BME280;4481;43.406;24.454;2022-12-16T05:05:40;78002.03;;;-144.09;100.00
8890;BME280;4481;43.406;24.454;2022-12-16T05:08:25;77995.75;;;-144.09;100.00
8890;BME280;4481;43.406;24.454;2022-12-16T05:11:09;78014.56;;;-144.09;100.00
8890;BME280;4481;43.406;24.454;2022-12-16T05:13:53;78029.22;;;-144.09;100.00
8890;BME280;4481;43.406;24.454;2022-12-16T05:16:38;78027.13;;;-144.09;100.00
8890;BME280;4481;43.406;24.454;2022-12-16T05:19:22;78018.75;;;-144.09;100.00
8890;BME280;4481;43.406;24.454;2022-12-16T05:22:06;78018.75;;;-144.09;100.00
8890;BME280;4481;43.406;24.454;2022-12-16T05:24:50;77999.94;;;-144.09;100.00
8890;BME280;4481;43.406;24.454;2022-12-16T05:27:34;77993.69;;;-144.09;100.00
8890;BME280;4481;43.406;24.454;2022-12-16T05:30:18;78002.03;;;-144.09;100.00
8890;BME280;4481;43.406;24.454;2022-12-16T05:33:03;78006.22;;;-144.09;100.00
8890;BME280;4481;43.406;24.454;2022-12-16T05:35:47;78008.31;;;-144.09;100.00
8890;BME280;4481;43.406;24.454;2022-12-16T05:38:32;78050.13;;;-144.09;100.00
8890;BME280;4481;43.406;24.454;2022-12-16T05:41:16;78060.56;;;-144.09;100.00
8890;BME280;4481;43.406;24.454;2022-12-16T05:44:01;78066.84;;;-144.09;100.00
8890;BME280;4481;43.406;24.454;2022-12-16T05:46:45;78083.56;;;-144.09;100.00
8890;BME280;4481;43.406;24.454;2022-12-16T05:49:30;78131.66;;;-144.09;100.00
8890;BME280;4481;43.406;24.454;2022-12-16T05:52:14;78165.09;;;-144.09;100.00
8890;BME280;4481;43.406;24.454;2022-12-16T05:54:58;78169.28;;;-144.09;100.00
8890;BME280;4481;43.406;24.454;2022-12-16T05:57:43;78163.00;;;-144.09;100.00
8890;BME280;4481;43.406;24.454;2022-12-16T06:00:27;78142.09;;;-144.09;100.00
8890;BME280;4481;43.406;24.454;2022-12-16T06:03:11;78140.00;;;-144.09;100.00
8890;BME280;4481;43.406;24.454;2022-12-16T06:05:56;78131.66;;;-144.09;100.00
8890;BME280;4481;43.406;24.454;2022-12-16T06:08:40;78108.66;;;-144.09;100.00
8890;BME280;4481;43.406;24.454;2022-12-16T06:11:26;78100.28;;;-144.09;100.00
8890;BME280;4481;43.406;24.454;2022-12-16T06:14:10;78077.28;;;-144.09;100.00
8890;BME280;4481;43.406;24.454;2022-12-16T06:16:54;78056.38;;;-144.09;100.00
8890;BME280;4481;43.406;24.454;2022-12-16T06:19:39;78062.66;;;-144.09;100.00
8890;BME280;4481;43.406;24.454;2022-12-16T06:22:25;78054.28;;;-144.09;100.00
8890;BME280;4481;43.406;24.454;2022-12-16T06:25:09;78054.28;;;-144.09;100.00
8890;BME280;4481;43.406;24.454;2022-12-16T06:27:54;78037.56;;;-144.09;100.00
8890;BME280;4481;43.406;24.454;2022-12-16T06:30:39;78052.22;;;-144.09;100.00
8890;BME280;4481;43.406;24.454;2022-12-16T06:33:23;78100.28;;;-144.09;100.00
8890;BME280;4481;43.406;24.454;2022-12-16T06:36:08;78108.66;;;-144.09;100.00
8890;BME280;4481;43.406;24.454;2022-12-16T06:38:53;78087.75;;;-144.09;100.00
8890;BME280;4481;43.406;24.454;2022-12-16T06:41:37;78106.56;;;-144.09;100.00
8890;BME280;4481;43.406;24.454;2022-12-16T06:44:21;78104.47;;;-144.09;100.00
8890;BME280;4481;43.406;24.454;2022-12-16T06:47:05;78085.66;;;-144.09;100.00
8890;BME280;4481;43.406;24.454;2022-12-16T06:49:49;78081.47;;;-144.09;100.00
8890;BME280;4481;43.406;24.454;2022-12-16T06:52:33;78066.84;;;-144.09;100.00
8890;BME280;4481;43.406;24.454;2022-12-16T06:55:15;78045.94;;;-144.09;100.00
8890;BME280;4481;43.406;24.454;2022-12-16T06:58:00;78043.84;;;-144.09;100.00
8890;BME280;4481;43.406;24.454;2022-12-16T07:00:44;78060.56;;;-144.09;100.00
8890;BME280;4481;43.406;24.454;2022-12-16T07:03:29;78054.28;;;-144.09;100.00
8890;BME280;4481;43.406;24.454;2022-12-16T07:06:15;78050.13;;;-144.09;100.00
8890;BME280;4481;43.406;24.454;2022-12-16T07:08:59;78037.56;;;-144.09;100.00
8890;BME280;4481;43.406;24.454;2022-12-16T07:11:44;78033.38;;;-144.09;100.00
8890;BME280;4481;43.406;24.454;2022-12-16T07:14:28;78035.47;;;-144.09;100.00
8890;BME280;4481;43.406;24.454;2022-12-16T07:17:13;78027.13;;;-144.09;100.00
8890;BME280;4481;43.406;24.454;2022-12-16T07:19:57;78043.84;;;-144.09;100.00
8890;BME280;4481;43.406;24.454;2022-12-16T07:22:42;78079.38;;;-144.09;100.00
8890;BME280;4481;43.406;24.454;2022-12-16T07:25:26;78079.38;;;-144.09;100.00
8890;BME280;4481;43.406;24.454;2022-12-16T07:28:11;78043.84;;;-144.09;100.00
8890;BME280;4481;43.406;24.454;2022-12-16T07:30:55;77999.94;;;-144.09;100.00
8890;BME280;4481;43.406;24.454;2022-12-16T07:33:39;77974.84;;;-144.09;100.00
8890;BME280;4481;43.406;24.454;2022-12-16T07:36:23;77958.13;;;-144.09;100.00
8890;BME280;4481;43.406;24.454;2022-12-16T07:39:07;77910.06;;;-144.09;100.00
8890;BME280;4481;43.406;24.454;2022-12-16T07:41:52;77916.31;;;-144.09;100.00
8890;BME280;4481;43.406;24.454;2022-12-16T07:44:37;77889.16;;;-144.09;100.00
8890;BME280;4481;43.406;24.454;2022-12-16T07:47:21;77874.53;;;-144.09;100.00
8890;BME280;4481;43.406;24.454;2022-12-16T07:50:06;77893.34;;;-144.09;100.00
8890;BME280;4481;43.406;24.454;2022-12-16T07:52:54;77903.78;;;-144.09;100.00
8890;BME280;4481;43.406;24.454;2022-12-16T07:55:38;77912.16;;;-144.09;100.00
8890;BME280;4481;43.406;24.454;2022-12-16T07:58:23;77907.97;;;-144.09;100.00
8890;BME280;4481;43.406;24.454;2022-12-16T08:01:08;77893.34;;;-144.09;100.00
8890;BME280;4481;43.406;24.454;2022-12-16T08:03:52;77901.69;;;-144.09;100.00
8890;BME280;4481;43.406;24.454;2022-12-16T08:06:37;77907.97;;;-144.09;100.00
8890;BME280;4481;43.406;24.454;2022-12-16T08:09:21;77916.31;;;-144.09;100.00
8890;BME280;4481;43.406;24.454;2022-12-16T08:12:05;77878.69;;;-144.09;100.00
8890;BME280;4481;43.406;24.454;2022-12-16T08:14:54;77807.63;;;-144.09;100.00
8890;BME280;4481;43.406;24.454;2022-12-16T08:17:47;77793.00;;;-144.09;100.00
8890;BME280;4481;43.406;24.454;2022-12-16T08:20:32;77790.91;;;-144.09;100.00
8890;BME280;4481;43.406;24.454;2022-12-16T08:23:16;77795.09;;;-144.09;100.00
8890;BME280;4481;43.406;24.454;2022-12-16T08:26:01;77788.81;;;-144.09;100.00
8890;BME280;4481;43.406;24.454;2022-12-16T08:28:45;77784.63;;;-144.09;99.96
8890;BME280;4481;43.406;24.454;2022-12-16T08:31:30;77861.97;;;-144.09;100.00
8890;BME280;4481;43.406;24.454;2022-12-16T08:34:15;77914.25;;;-144.09;100.00
8890;BME280;4481;43.406;24.454;2022-12-16T08:36:59;77861.97;;;-144.09;100.00
8890;BME280;4481;43.406;24.454;2022-12-16T08:39:43;77809.72;;;-144.09;100.00
8890;BME280;4481;43.406;24.454;2022-12-16T08:42:28;77830.63;;;-144.09;100.00
8890;BME280;4481;43.406;24.454;2022-12-16T08:45:13;77849.44;;;-144.09;100.00
8890;BME280;4481;43.406;24.454;2022-12-16T08:47:57;77820.16;;;-144.09;100.00
8890;BME280;4481;43.406;24.454;2022-12-16T08:50:42;77801.34;;;-144.09;100.00
8890;BME280;4481;43.406;24.454;2022-12-16T08:53:26;77805.53;;;-144.09;100.00
8890;BME280;4481;43.406;24.454;2022-12-16T08:56:11;77845.25;;;-144.09;100.00
8890;BME280;4481;43.406;24.454;2022-12-16T08:58:55;77824.34;;;-144.09;100.00
8890;BME280;4481;43.406;24.454;2022-12-16T09:01:39;77795.09;;;-144.09;100.00
8890;BME280;4481;43.406;24.454;2022-12-16T09:04:23;77805.53;;;-144.09;100.00
8890;BME280;4481;43.406;24.454;2022-12-16T09:07:09;77797.19;;;-144.09;100.00
8890;BME280;4481;43.406;24.454;2022-12-16T09:09:53;77753.28;;;-144.09;100.00
8890;BME280;4481;43.406;24.454;2022-12-16T09:12:37;77738.66;;;-144.09;99.50
8890;BME280;4481;43.406;24.454;2022-12-16T09:15:21;77692.66;;;-144.09;98.37
8890;BME280;4481;43.406;24.454;2022-12-16T09:18:05;77719.84;;;-144.09;99.27
8890;BME280;4481;43.406;24.454;2022-12-16T09:20:50;77721.94;;;-144.09;99.18
8890;BME280;4481;43.406;24.454;2022-12-16T09:23:35;77717.75;;;-144.09;99.34
8890;BME280;4481;43.406;24.454;2022-12-16T09:26:19;77692.66;;;-144.09;97.74
8890;BME280;4481;43.406;24.454;2022-12-16T09:29:03;77809.72;;;-144.09;100.00
8890;BME280;4481;43.406;24.454;2022-12-16T09:31:47;77793.00;;;-144.09;100.00
8890;BME280;4481;43.406;24.454;2022-12-16T09:34:32;77755.38;;;-144.09;100.00
8890;BME280;4481;43.406;24.454;2022-12-16T09:37:16;77832.72;;;-144.09;100.00
8890;BME280;4481;43.406;24.454;2022-12-16T09:40:01;77832.72;;;-144.09;100.00
8890;BME280;4481;43.406;24.454;2022-12-16T09:42:49;77899.59;;;-144.09;100.00
8890;BME280;4481;43.406;24.454;2022-12-16T09:45:42;77864.06;;;-144.09;100.00
8890;BME280;4481;43.406;24.454;2022-12-16T09:48:35;77851.53;;;-144.09;100.00
8890;BME280;4481;43.406;24.454;2022-12-16T09:51:25;77855.72;;;-144.09;100.00
8890;BME280;4481;43.406;24.454;2022-12-16T09:54:11;77805.53;;;-144.09;100.00
8890;BME280;4481;43.406;24.454;2022-12-16T09:57:00;77786.72;;;-144.09;100.00
8890;BME280;4481;43.406;24.454;2022-12-16T09:59:53;77770.00;;;-144.09;100.00
8890;BME280;4481;43.406;24.454;2022-12-16T10:02:38;77701.03;;;-144.09;100.00
8890;BME280;4481;43.406;24.454;2022-12-16T10:05:29;77661.31;;;-144.09;100.00
8890;BME280;4481;43.406;24.454;2022-12-16T10:08:21;77632.03;;;-144.09;99.76
8890;BME280;4481;43.406;24.454;2022-12-16T10:11:14;77657.13;;;-144.09;99.09
8890;BME280;4481;43.406;24.454;2022-12-16T10:14:04;77621.59;;;-144.09;99.06
8890;BME280;4481;43.406;24.454;2022-12-16T10:16:55;77650.84;;;-144.09;100.00
8890;BME280;4481;43.406;24.454;2022-12-16T10:19:47;77673.84;;;-144.09;99.90
8890;BME280;4481;43.406;24.454;2022-12-16T10:22:38;77738.66;;;-144.09;100.00
8890;BME280;4481;43.406;24.454;2022-12-16T10:25:28;77711.47;;;-144.09;100.00
8890;BME280;4481;43.406;24.454;2022-12-16T10:28:43;77646.69;;;-144.09;99.41
8890;BME280;4481;43.406;24.454;2022-12-16T10:31:29;77598.59;;;-144.09;98.17
8890;BME280;4481;43.406;24.454;2022-12-16T10:34:16;77627.88;;;-144.09;99.13
8890;BME280;4481;43.406;24.454;2022-12-16T10:37:02;77606.97;;;-144.09;99.68
8890;BME280;4481;43.406;24.454;2022-12-16T10:39:49;77567.25;;;-144.09;97.70
8890;BME280;4481;43.406;24.454;2022-12-16T10:42:38;77560.97;;;-144.09;97.92
8890;BME280;4481;43.406;24.454;2022-12-16T10:45:27;77556.81;;;-144.09;97.40
8890;BME280;4481;43.406;24.454;2022-12-16T10:48:12;77592.34;;;-144.09;98.07
8890;BME280;4481;43.406;24.454;2022-12-16T10:50:58;77606.97;;;-144.09;98.99
8890;BME280;4481;43.406;24.454;2022-12-16T10:53:43;77606.97;;;-144.09;99.47
8890;BME280;4481;43.406;24.454;2022-12-16T10:56:46;77577.69;;;-144.09;98.97
8890;BME280;4481;43.406;24.454;2022-12-16T10:59:36;77565.16;;;-144.09;97.66
8890;BME280;4481;43.406;24.454;2022-12-16T11:02:24;77540.06;;;-144.09;97.69
8890;BME280;4481;43.406;24.454;2022-12-16T11:05:28;77529.63;;;-144.09;96.76
8890;BME280;4481;43.406;24.454;2022-12-16T11:08:25;77517.09;;;-144.09;96.96
8890;BME280;4481;43.406;24.454;2022-12-16T11:11:19;77604.88;;;-144.09;98.95
8890;BME280;4481;43.406;24.454;2022-12-16T11:14:20;77571.44;;;-144.09;97.72
8890;BME280;4481;43.406;24.454;2022-12-16T11:17:15;77573.53;;;-144.09;99.12
8890;BME280;4481;43.406;24.454;2022-12-16T11:20:16;77602.78;;;-144.09;99.59
8890;BME280;4481;43.406;24.454;2022-12-16T11:23:13;77659.22;;;-144.09;100.00
8890;BME280;4481;43.406;24.454;2022-12-16T11:26:12;77663.41;;;-144.09;100.00
8890;BME280;4481;43.406;24.454;2022-12-16T11:29:07;77606.97;;;-144.09;100.00
8890;BME280;4481;43.406;24.454;2022-12-16T11:31:56;77627.88;;;-144.09;100.00
8890;BME280;4481;43.406;24.454;2022-12-16T11:34:44;77588.16;;;-144.09;100.00
8890;BME280;4481;43.406;24.454;2022-12-16T11:37:30;77550.53;;;-144.09;100.00
8890;BME280;4481;43.406;24.454;2022-12-16T11:40:16;77567.25;;;-144.09;100.00
8890;BME280;4481;43.406;24.454;2022-12-16T11:43:02;77560.97;;;-144.09;100.00
8890;BME280;4481;43.406;24.454;2022-12-16T11:45:50;77563.06;;;-144.09;100.00
8890;BME280;4481;43.406;24.454;2022-12-16T11:48:38;77560.97;;;-144.09;99.81
8890;BME280;4481;43.406;24.454;2022-12-16T11:51:28;77600.69;;;-144.09;100.00
8890;BME280;4481;43.406;24.454;2022-12-16T11:54:16;77583.97;;;-144.09;100.00
8890;BME280;4481;43.406;24.454;2022-12-16T11:57:05;77594.44;;;-144.09;100.00
8890;BME280;4481;43.406;24.454;2022-12-16T11:59:56;77588.16;;;-144.09;100.00
8890;BME280;4481;43.406;24.454;2022-12-16T12:02:47;77621.59;;;-144.09;100.00
8890;BME280;4481;43.406;24.454;2022-12-16T12:05:44;77592.34;;;-144.09;100.00
8890;BME280;4481;43.406;24.454;2022-12-16T12:08:33;77548.44;;;-144.09;100.00
8890;BME280;4481;43.406;24.454;2022-12-16T12:11:22;77535.91;;;-144.09;98.87
8890;BME280;4481;43.406;24.454;2022-12-16T12:14:15;77527.53;;;-144.09;99.09
8890;BME280;4481;43.406;24.454;2022-12-16T12:17:12;77554.72;;;-144.09;99.39
8890;BME280;4481;43.406;24.454;2022-12-16T12:20:19;77575.63;;;-144.09;99.81
8890;BME280;4481;43.406;24.454;2022-12-16T12:23:09;77552.63;;;-144.09;99.78
8890;BME280;4481;43.406;24.454;2022-12-16T12:26:02;77535.91;;;-144.09;99.23
8890;BME280;4481;43.406;24.454;2022-12-16T12:28:55;77519.19;;;-144.09;98.74
8890;BME280;4481;43.406;24.454;2022-12-16T12:31:48;77521.28;;;-144.09;99.49
8890;BME280;4481;43.406;24.454;2022-12-16T12:34:42;77525.44;;;-144.09;99.39
8890;BME280;4481;43.406;24.454;2022-12-16T12:37:32;77529.63;;;-144.09;99.60
8890;BME280;4481;43.406;24.454;2022-12-16T12:40:37;77521.28;;;-144.09;99.21
8890;BME280;4481;43.406;24.454;2022-12-16T12:43:33;77548.44;;;-144.09;99.71
8890;BME280;4481;43.406;24.454;2022-12-16T12:46:27;77560.97;;;-144.09;99.78
8890;BME280;4481;43.406;24.454;2022-12-16T12:49:25;77575.63;;;-144.09;100.00
8890;BME280;4481;43.406;24.454;2022-12-16T12:52:19;77586.06;;;-144.09;100.00
8890;BME280;4481;43.406;24.454;2022-12-16T12:55:11;77583.97;;;-144.09;100.00
8890;BME280;4481;43.406;24.454;2022-12-16T12:58:09;77571.44;;;-144.09;100.00
8890;BME280;4481;43.406;24.454;2022-12-16T13:00:56;77598.59;;;-144.09;100.00
8890;BME280;4481;43.406;24.454;2022-12-16T13:03:44;77661.31;;;-144.09;100.00
8890;BME280;4481;43.406;24.454;2022-12-16T13:06:33;77673.84;;;-144.09;100.00
8890;BME280;4481;43.406;24.454;2022-12-16T13:09:24;77650.84;;;-144.09;100.00
8890;BME280;4481;43.406;24.454;2022-12-16T13:12:24;77661.31;;;-144.09;100.00
8890;BME280;4481;43.406;24.454;2022-12-16T13:15:14;77611.16;;;-144.09;100.00
8890;BME280;4481;43.406;24.454;2022-12-16T13:18:31;77581.88;;;-144.09;100.00
8890;BME280;4481;43.406;24.454;2022-12-16T13:21:43;77569.34;;;-144.09;100.00
8890;BME280;4481;43.406;24.454;2022-12-16T13:24:38;77583.97;;;-144.09;100.00
8890;BME280;4481;43.406;24.454;2022-12-16T13:27:23;77575.63;;;-144.09;100.00
8890;BME280;4481;43.406;24.454;2022-12-16T13:30:20;77632.03;;;-144.09;100.00
8890;BME280;4481;43.406;24.454;2022-12-16T13:33:07;77606.97;;;-144.09;100.00
8890;BME280;4481;43.406;24.454;2022-12-16T13:36:05;77644.59;;;-144.09;100.00
8890;BME280;4481;43.406;24.454;2022-12-16T13:38:52;77617.41;;;-144.09;100.00
8890;BME280;4481;43.406;24.454;2022-12-16T13:41:49;77592.34;;;-144.09;100.00
8890;BME280;4481;43.406;24.454;2022-12-16T13:44:55;77615.31;;;-144.09;100.00
8890;BME280;4481;43.406;24.454;2022-12-16T13:48:01;77671.75;;;-144.09;100.00
8890;BME280;4481;43.406;24.454;2022-12-16T13:50:47;77686.41;;;-144.09;100.00
8890;BME280;4481;43.406;24.454;2022-12-16T13:53:33;77627.88;;;-144.09;100.00
8890;BME280;4481;43.406;24.454;2022-12-16T13:56:25;77615.31;;;-144.09;100.00
8890;BME280;4481;43.406;24.454;2022-12-16T13:59:15;77606.97;;;-144.09;100.00
8890;BME280;4481;43.406;24.454;2022-12-16T14:02:02;77602.78;;;-144.09;100.00